sensor_id;sensor_type;location;lat;lon;timestamp;temperature;humidity
33328;DHT22;19692;52.998;9.116;2022-09-02T00:01:52;14.80;99.90
33328;DHT22;19692;52.998;9.116;2022-09-02T00:04:21;14.80;99.90
33328;DHT22;19692;52.998;9.116;2022-09-02T00:06:51;14.70;99.90
33328;DHT22;19692;52.998;9.116;2022-09-02T00:09:21;14.70;99.90
33328;DHT22;19692;52.998;9.116;2022-09-02T00:11:50;14.60;99.90
33328;DHT22;19692;52.998;9.116;2022-09-02T00:14:24;14.60;99.90
33328;DHT22;19692;52.998;9.116;2022-09-02T00:16:53;14.60;99.90
33328;DHT22;19692;52.998;9.116;2022-09-02T00:19:21;14.30;99.90
33328;DHT22;19692;52.998;9.116;2022-09-02T00:21:51;14.20;99.90
33328;DHT22;19692;52.998;9.116;2022-09-02T00:24:18;14.20;99.90
33328;DHT22;19692;52.998;9.116;2022-09-02T00:26:45;14.00;99.90
33328;DHT22;19692;52.998;9.116;2022-09-02T00:29:12;13.90;99.90
33328;DHT22;19692;52.998;9.116;2022-09-02T00:31:40;13.80;99.90
33328;DHT22;19692;52.998;9.116;2022-09-02T00:34:07;13.80;99.90
33328;DHT22;19692;52.998;9.116;2022-09-02T00:36:34;13.80;99.90
33328;DHT22;19692;52.998;9.116;2022-09-02T00:39:00;13.80;99.90
33328;DHT22;19692;52.998;9.116;2022-09-02T00:41:27;13.80;99.90
33328;DHT22;19692;52.998;9.116;2022-09-02T00:44:03;13.80;99.90
33328;DHT22;19692;52.998;9.116;2022-09-02T00:46:32;13.80;99.90
33328;DHT22;19692;52.998;9.116;2022-09-02T00:52:04;13.60;99.90
33328;DHT22;19692;52.998;9.116;2022-09-02T00:54:37;13.50;99.90
33328;DHT22;19692;52.998;9.116;2022-09-02T00:57:12;13.40;99.90
33328;DHT22;19692;52.998;9.116;2022-09-02T01:02:51;13.10;99.90
33328;DHT22;19692;52.998;9.116;2022-09-02T01:05:22;12.80;99.90
33328;DHT22;19692;52.998;9.116;2022-09-02T01:07:50;12.80;99.90
33328;DHT22;19692;52.998;9.116;2022-09-02T01:10:23;12.90;99.90
33328;DHT22;19692;52.998;9.116;2022-09-02T01:12:59;12.90;99.90
33328;DHT22;19692;52.998;9.116;2022-09-02T01:15:28;12.90;99.90
33328;DHT22;19692;52.998;9.116;2022-09-02T01:17:55;12.80;99.90
33328;DHT22;19692;52.998;9.116;2022-09-02T01:20:25;12.70;99.90
33328;DHT22;19692;52.998;9.116;2022-09-02T01:22:52;12.70;99.90
33328;DHT22;19692;52.998;9.116;2022-09-02T01:25:22;12.70;99.90
33328;DHT22;19692;52.998;9.116;2022-09-02T01:27:50;12.70;99.90
33328;DHT22;19692;52.998;9.116;2022-09-02T01:30:20;12.70;99.90
33328;DHT22;19692;52.998;9.116;2022-09-02T01:32:48;12.80;99.90
33328;DHT22;19692;52.998;9.116;2022-09-02T01:35:15;12.80;99.90
33328;DHT22;19692;52.998;9.116;2022-09-02T01:37:42;12.80;99.90
33328;DHT22;19692;52.998;9.116;2022-09-02T01:40:11;12.70;99.90
33328;DHT22;19692;52.998;9.116;2022-09-02T01:42:40;12.70;99.90
33328;DHT22;19692;52.998;9.116;2022-09-02T01:45:06;12.60;99.90
33328;DHT22;19692;52.998;9.116;2022-09-02T01:47:33;12.50;99.90
33328;DHT22;19692;52.998;9.116;2022-09-02T01:50:00;12.50;99.90
33328;DHT22;19692;52.998;9.116;2022-09-02T01:52:27;12.30;99.90
33328;DHT22;19692;52.998;9.116;2022-09-02T01:54:54;12.20;99.90
33328;DHT22;19692;52.998;9.116;2022-09-02T01:57:20;12.20;99.90
33328;DHT22;19692;52.998;9.116;2022-09-02T01:59:49;12.20;99.90
33328;DHT22;19692;52.998;9.116;2022-09-02T02:02:16;12.20;99.90
33328;DHT22;19692;52.998;9.116;2022-09-02T02:04:43;12.20;99.90
33328;DHT22;19692;52.998;9.116;2022-09-02T02:07:11;12.20;99.90
33328;DHT22;19692;52.998;9.116;2022-09-02T02:09:39;12.30;99.90
33328;DHT22;19692;52.998;9.116;2022-09-02T02:12:06;12.20;99.90
33328;DHT22;19692;52.998;9.116;2022-09-02T02:14:32;12.20;99.90
33328;DHT22;19692;52.998;9.116;2022-09-02T02:16:58;12.20;99.90
33328;DHT22;19692;52.998;9.116;2022-09-02T02:19:24;12.20;99.90
33328;DHT22;19692;52.998;9.116;2022-09-02T02:21:49;12.20;99.90
33328;DHT22;19692;52.998;9.116;2022-09-02T02:24:15;12.30;99.90
33328;DHT22;19692;52.998;9.116;2022-09-02T02:26:41;12.40;99.90
33328;DHT22;19692;52.998;9.116;2022-09-02T02:29:07;12.40;99.90
33328;DHT22;19692;52.998;9.116;2022-09-02T02:31:33;12.40;99.90
33328;DHT22;19692;52.998;9.116;2022-09-02T02:33:59;12.50;99.90
33328;DHT22;19692;52.998;9.116;2022-09-02T02:36:26;12.50;99.90
33328;DHT22;19692;52.998;9.116;2022-09-02T02:38:52;12.50;99.90
33328;DHT22;19692;52.998;9.116;2022-09-02T02:41:18;12.50;99.90
33328;DHT22;19692;52.998;9.116;2022-09-02T02:43:43;12.50;99.90
33328;DHT22;19692;52.998;9.116;2022-09-02T02:46:09;12.50;99.90
33328;DHT22;19692;52.998;9.116;2022-09-02T02:48:36;12.40;99.90
33328;DHT22;19692;52.998;9.116;2022-09-02T02:51:03;12.40;99.90
33328;DHT22;19692;52.998;9.116;2022-09-02T02:53:29;12.40;99.90
33328;DHT22;19692;52.998;9.116;2022-09-02T02:55:56;12.40;99.90
33328;DHT22;19692;52.998;9.116;2022-09-02T02:58:22;12.30;99.90
33328;DHT22;19692;52.998;9.116;2022-09-02T03:00:48;12.40;99.90
33328;DHT22;19692;52.998;9.116;2022-09-02T03:03:14;12.40;99.90
33328;DHT22;19692;52.998;9.116;2022-09-02T03:05:44;12.30;99.90
33328;DHT22;19692;52.998;9.116;2022-09-02T03:08:12;12.20;99.90
33328;DHT22;19692;52.998;9.116;2022-09-02T03:10:39;12.30;99.90
33328;DHT22;19692;52.998;9.116;2022-09-02T03:13:07;12.30;99.90
33328;DHT22;19692;52.998;9.116;2022-09-02T03:15:35;12.30;99.90
33328;DHT22;19692;52.998;9.116;2022-09-02T03:18:02;12.30;99.90
33328;DHT22;19692;52.998;9.116;2022-09-02T03:20:28;12.20;99.90
33328;DHT22;19692;52.998;9.116;2022-09-02T03:22:56;12.30;99.90
33328;DHT22;19692;52.998;9.116;2022-09-02T03:25:23;12.20;99.90
33328;DHT22;19692;52.998;9.116;2022-09-02T03:27:49;12.20;99.90
33328;DHT22;19692;52.998;9.116;2022-09-02T03:30:18;12.20;99.90
33328;DHT22;19692;52.998;9.116;2022-09-02T03:32:46;12.30;99.90
33328;DHT22;19692;52.998;9.116;2022-09-02T03:35:15;12.30;99.90
33328;DHT22;19692;52.998;9.116;2022-09-02T03:37:44;12.20;99.90
33328;DHT22;19692;52.998;9.116;2022-09-02T03:40:13;12.30;99.90
33328;DHT22;19692;52.998;9.116;2022-09-02T03:42:41;12.30;99.90
33328;DHT22;19692;52.998;9.116;2022-09-02T03:45:09;12.30;99.90
33328;DHT22;19692;52.998;9.116;2022-09-02T03:47:36;12.30;99.90
33328;DHT22;19692;52.998;9.116;2022-09-02T03:50:05;12.20;99.90
33328;DHT22;19692;52.998;9.116;2022-09-02T03:52:31;12.20;99.90
33328;DHT22;19692;52.998;9.116;2022-09-02T03:54:57;12.20;99.90
33328;DHT22;19692;52.998;9.116;2022-09-02T03:57:23;12.10;99.90
33328;DHT22;19692;52.998;9.116;2022-09-02T03:59:51;12.10;99.90
33328;DHT22;19692;52.998;9.116;2022-09-02T04:02:17;12.10;99.90
33328;DHT22;19692;52.998;9.116;2022-09-02T04:04:43;12.00;99.90
33328;DHT22;19692;52.998;9.116;2022-09-02T04:07:09;12.00;99.90
33328;DHT22;19692;52.998;9.116;2022-09-02T04:09:34;12.00;99.90
33328;DHT22;19692;52.998;9.116;2022-09-02T04:12:02;12.00;99.90
33328;DHT22;19692;52.998;9.116;2022-09-02T04:14:29;12.00;99.90
33328;DHT22;19692;52.998;9.116;2022-09-02T04:16:55;12.00;99.90
33328;DHT22;19692;52.998;9.116;2022-09-02T04:19:21;12.00;99.90
33328;DHT22;19692;52.998;9.116;2022-09-02T04:21:46;12.00;99.90
33328;DHT22;19692;52.998;9.116;2022-09-02T04:24:12;11.90;99.90
33328;DHT22;19692;52.998;9.116;2022-09-02T04:26:39;11.80;99.90
33328;DHT22;19692;52.998;9.116;2022-09-02T04:29:04;11.90;99.90
33328;DHT22;19692;52.998;9.116;2022-09-02T04:31:31;11.80;99.90
33328;DHT22;19692;52.998;9.116;2022-09-02T04:33:57;11.90;99.90
33328;DHT22;19692;52.998;9.116;2022-09-02T04:36:24;11.90;99.90
33328;DHT22;19692;52.998;9.116;2022-09-02T04:38:51;11.90;99.90
33328;DHT22;19692;52.998;9.116;2022-09-02T04:41:23;11.90;99.90
33328;DHT22;19692;52.998;9.116;2022-09-02T04:43:51;11.90;99.90
33328;DHT22;19692;52.998;9.116;2022-09-02T04:46:19;11.80;99.90
33328;DHT22;19692;52.998;9.116;2022-09-02T04:48:45;11.90;99.90
33328;DHT22;19692;52.998;9.116;2022-09-02T04:51:15;11.90;99.90
33328;DHT22;19692;52.998;9.116;2022-09-02T04:53:43;12.00;99.90
33328;DHT22;19692;52.998;9.116;2022-09-02T04:56:13;12.00;99.90
33328;DHT22;19692;52.998;9.116;2022-09-02T04:58:41;12.00;99.90
33328;DHT22;19692;52.998;9.116;2022-09-02T05:01:16;12.00;99.90
33328;DHT22;19692;52.998;9.116;2022-09-02T05:03:46;12.10;99.90
33328;DHT22;19692;52.998;9.116;2022-09-02T05:06:19;12.10;99.90
33328;DHT22;19692;52.998;9.116;2022-09-02T05:08:51;12.10;99.90
33328;DHT22;19692;52.998;9.116;2022-09-02T05:11:22;12.10;99.90
33328;DHT22;19692;52.998;9.116;2022-09-02T05:13:52;12.10;99.90
33328;DHT22;19692;52.998;9.116;2022-09-02T05:16:21;12.10;99.90
33328;DHT22;19692;52.998;9.116;2022-09-02T05:18:52;12.10;99.90
33328;DHT22;19692;52.998;9.116;2022-09-02T05:21:19;12.10;99.90
33328;DHT22;19692;52.998;9.116;2022-09-02T05:23:45;12.10;99.90
33328;DHT22;19692;52.998;9.116;2022-09-02T05:26:12;12.10;99.90
33328;DHT22;19692;52.998;9.116;2022-09-02T05:28:39;12.10;99.90
33328;DHT22;19692;52.998;9.116;2022-09-02T05:31:08;12.10;99.90
33328;DHT22;19692;52.998;9.116;2022-09-02T05:33:35;12.20;99.90
33328;DHT22;19692;52.998;9.116;2022-09-02T05:36:04;12.20;99.90
33328;DHT22;19692;52.998;9.116;2022-09-02T05:38:30;12.20;99.90
33328;DHT22;19692;52.998;9.116;2022-09-02T05:40:56;12.30;99.90
33328;DHT22;19692;52.998;9.116;2022-09-02T05:43:24;12.40;99.90
33328;DHT22;19692;52.998;9.116;2022-09-02T05:45:50;12.50;99.90
33328;DHT22;19692;52.998;9.116;2022-09-02T05:48:15;12.60;99.90
33328;DHT22;19692;52.998;9.116;2022-09-02T05:51:04;12.80;99.90
33328;DHT22;19692;52.998;9.116;2022-09-02T05:53:31;12.80;99.90
33328;DHT22;19692;52.998;9.116;2022-09-02T05:55:57;12.90;99.90
33328;DHT22;19692;52.998;9.116;2022-09-02T05:58:23;12.90;99.90
33328;DHT22;19692;52.998;9.116;2022-09-02T06:00:49;12.90;99.90
33328;DHT22;19692;52.998;9.116;2022-09-02T06:03:15;13.10;99.90
33328;DHT22;19692;52.998;9.116;2022-09-02T06:05:53;13.20;99.90
33328;DHT22;19692;52.998;9.116;2022-09-02T06:08:20;13.40;99.90
33328;DHT22;19692;52.998;9.116;2022-09-02T06:10:46;13.50;99.90
33328;DHT22;19692;52.998;9.116;2022-09-02T06:13:12;13.60;99.90
33328;DHT22;19692;52.998;9.116;2022-09-02T06:15:42;13.80;99.90
33328;DHT22;19692;52.998;9.116;2022-09-02T06:18:09;14.00;99.90
33328;DHT22;19692;52.998;9.116;2022-09-02T06:20:40;14.10;99.90
33328;DHT22;19692;52.998;9.116;2022-09-02T06:23:07;14.20;99.90
33328;DHT22;19692;52.998;9.116;2022-09-02T06:25:36;14.20;99.90
33328;DHT22;19692;52.998;9.116;2022-09-02T06:28:03;14.40;99.90
33328;DHT22;19692;52.998;9.116;2022-09-02T06:30:29;14.50;99.90
33328;DHT22;19692;52.998;9.116;2022-09-02T06:32:54;14.70;99.90
33328;DHT22;19692;52.998;9.116;2022-09-02T06:35:21;14.80;99.90
33328;DHT22;19692;52.998;9.116;2022-09-02T06:37:48;15.00;99.90
33328;DHT22;19692;52.998;9.116;2022-09-02T06:40:14;15.10;99.90
33328;DHT22;19692;52.998;9.116;2022-09-02T06:42:41;15.20;99.90
33328;DHT22;19692;52.998;9.116;2022-09-02T06:45:07;15.30;99.90
33328;DHT22;19692;52.998;9.116;2022-09-02T06:47:33;15.50;99.90
33328;DHT22;19692;52.998;9.116;2022-09-02T06:49:59;15.60;99.90
33328;DHT22;19692;52.998;9.116;2022-09-02T06:52:25;15.60;99.90
33328;DHT22;19692;52.998;9.116;2022-09-02T06:54:51;15.70;99.90
33328;DHT22;19692;52.998;9.116;2022-09-02T06:57:19;15.70;99.90
33328;DHT22;19692;52.998;9.116;2022-09-02T06:59:45;15.80;99.90
33328;DHT22;19692;52.998;9.116;2022-09-02T07:02:11;16.00;99.90
33328;DHT22;19692;52.998;9.116;2022-09-02T07:04:39;16.20;99.90
33328;DHT22;19692;52.998;9.116;2022-09-02T07:07:24;16.40;99.90
33328;DHT22;19692;52.998;9.116;2022-09-02T07:09:50;16.50;99.90
33328;DHT22;19692;52.998;9.116;2022-09-02T07:12:17;16.60;99.90
33328;DHT22;19692;52.998;9.116;2022-09-02T07:14:44;16.80;99.90
33328;DHT22;19692;52.998;9.116;2022-09-02T07:17:11;16.90;99.90
33328;DHT22;19692;52.998;9.116;2022-09-02T07:19:44;17.00;99.90
33328;DHT22;19692;52.998;9.116;2022-09-02T07:22:10;17.20;99.90
33328;DHT22;19692;52.998;9.116;2022-09-02T07:24:37;17.30;99.90
33328;DHT22;19692;52.998;9.116;2022-09-02T07:27:04;17.40;99.90
33328;DHT22;19692;52.998;9.116;2022-09-02T07:29:30;17.60;99.90
33328;DHT22;19692;52.998;9.116;2022-09-02T07:31:56;17.60;99.90
33328;DHT22;19692;52.998;9.116;2022-09-02T07:34:23;17.90;99.90
33328;DHT22;19692;52.998;9.116;2022-09-02T07:36:49;18.00;99.90
33328;DHT22;19692;52.998;9.116;2022-09-02T07:39:16;18.20;99.90
33328;DHT22;19692;52.998;9.116;2022-09-02T07:41:44;18.30;99.90
33328;DHT22;19692;52.998;9.116;2022-09-02T07:44:12;18.30;99.90
33328;DHT22;19692;52.998;9.116;2022-09-02T07:46:38;18.30;99.90
33328;DHT22;19692;52.998;9.116;2022-09-02T07:49:07;18.40;99.90
33328;DHT22;19692;52.998;9.116;2022-09-02T07:51:35;18.50;99.90
33328;DHT22;19692;52.998;9.116;2022-09-02T07:54:05;18.70;99.90
33328;DHT22;19692;52.998;9.116;2022-09-02T07:56:31;18.90;99.90
33328;DHT22;19692;52.998;9.116;2022-09-02T07:58:57;19.10;99.90
33328;DHT22;19692;52.998;9.116;2022-09-02T08:01:24;19.20;99.90
33328;DHT22;19692;52.998;9.116;2022-09-02T08:03:50;19.40;99.90
33328;DHT22;19692;52.998;9.116;2022-09-02T08:06:17;19.40;99.90
33328;DHT22;19692;52.998;9.116;2022-09-02T08:08:43;19.60;99.90
33328;DHT22;19692;52.998;9.116;2022-09-02T08:11:09;19.90;99.90
33328;DHT22;19692;52.998;9.116;2022-09-02T08:13:35;20.00;99.90
33328;DHT22;19692;52.998;9.116;2022-09-02T08:16:02;20.10;99.90
33328;DHT22;19692;52.998;9.116;2022-09-02T08:18:29;20.10;99.90
33328;DHT22;19692;52.998;9.116;2022-09-02T08:20:55;20.30;99.90
33328;DHT22;19692;52.998;9.116;2022-09-02T08:23:22;20.40;99.90
33328;DHT22;19692;52.998;9.116;2022-09-02T08:25:48;20.60;99.90
33328;DHT22;19692;52.998;9.116;2022-09-02T08:28:13;20.70;99.90
33328;DHT22;19692;52.998;9.116;2022-09-02T08:30:39;21.00;99.90
33328;DHT22;19692;52.998;9.116;2022-09-02T08:33:05;21.20;99.90
33328;DHT22;19692;52.998;9.116;2022-09-02T08:35:31;21.50;99.90
33328;DHT22;19692;52.998;9.116;2022-09-02T08:37:58;21.70;99.90
33328;DHT22;19692;52.998;9.116;2022-09-02T08:40:29;21.80;99.90
33328;DHT22;19692;52.998;9.116;2022-09-02T08:43:00;21.90;99.90
33328;DHT22;19692;52.998;9.116;2022-09-02T08:45:29;21.90;99.90
33328;DHT22;19692;52.998;9.116;2022-09-02T08:50:42;22.20;99.90
33328;DHT22;19692;52.998;9.116;2022-09-02T08:55:57;22.20;99.90
33328;DHT22;19692;52.998;9.116;2022-09-02T08:58:27;22.20;99.90
33328;DHT22;19692;52.998;9.116;2022-09-02T09:01:02;22.30;99.90
33328;DHT22;19692;52.998;9.116;2022-09-02T09:18:43;23.60;99.90
33328;DHT22;19692;52.998;9.116;2022-09-02T09:21:13;23.40;99.90
33328;DHT22;19692;52.998;9.116;2022-09-02T09:23:39;23.20;99.90
33328;DHT22;19692;52.998;9.116;2022-09-02T09:26:16;23.40;99.90
33328;DHT22;19692;52.998;9.116;2022-09-02T09:28:45;23.70;99.90
33328;DHT22;19692;52.998;9.116;2022-09-02T09:31:18;23.90;99.90
33328;DHT22;19692;52.998;9.116;2022-09-02T09:34:08;23.90;99.90
33328;DHT22;19692;52.998;9.116;2022-09-02T09:39:29;24.00;99.10
33328;DHT22;19692;52.998;9.116;2022-09-02T09:41:58;23.90;99.80
33328;DHT22;19692;52.998;9.116;2022-09-02T09:44:38;24.20;99.30
33328;DHT22;19692;52.998;9.116;2022-09-02T09:47:16;24.50;98.10
33328;DHT22;19692;52.998;9.116;2022-09-02T09:49:48;24.70;97.70
33328;DHT22;19692;52.998;9.116;2022-09-02T09:52:23;24.40;96.70
33328;DHT22;19692;52.998;9.116;2022-09-02T09:57:42;24.70;95.30
33328;DHT22;19692;52.998;9.116;2022-09-02T10:02:51;24.80;94.70
33328;DHT22;19692;52.998;9.116;2022-09-02T10:07:58;25.00;95.50
33328;DHT22;19692;52.998;9.116;2022-09-02T10:10:28;25.20;95.10
33328;DHT22;19692;52.998;9.116;2022-09-02T10:13:20;25.40;94.10
33328;DHT22;19692;52.998;9.116;2022-09-02T10:16:03;25.60;93.70
33328;DHT22;19692;52.998;9.116;2022-09-02T10:18:52;25.80;92.30
33328;DHT22;19692;52.998;9.116;2022-09-02T10:21:34;25.90;92.20
33328;DHT22;19692;52.998;9.116;2022-09-02T10:27:58;26.60;91.10
33328;DHT22;19692;52.998;9.116;2022-09-02T10:33:54;26.10;89.10
33328;DHT22;19692;52.998;9.116;2022-09-02T10:36:40;25.00;90.50
33328;DHT22;19692;52.998;9.116;2022-09-02T10:39:52;24.40;91.20
33328;DHT22;19692;52.998;9.116;2022-09-02T10:42:33;24.40;92.20
33328;DHT22;19692;52.998;9.116;2022-09-02T10:45:13;24.50;91.20
33328;DHT22;19692;52.998;9.116;2022-09-02T10:47:58;24.10;91.40
33328;DHT22;19692;52.998;9.116;2022-09-02T10:50:51;24.50;91.90
33328;DHT22;19692;52.998;9.116;2022-09-02T10:56:25;25.20;91.90
33328;DHT22;19692;52.998;9.116;2022-09-02T10:58:59;25.40;90.10
33328;DHT22;19692;52.998;9.116;2022-09-02T11:01:39;25.30;90.00
33328;DHT22;19692;52.998;9.116;2022-09-02T11:07:08;25.20;89.60
33328;DHT22;19692;52.998;9.116;2022-09-02T11:09:58;25.60;88.10
33328;DHT22;19692;52.998;9.116;2022-09-02T11:12:40;26.10;87.70
33328;DHT22;19692;52.998;9.116;2022-09-02T11:15:27;26.30;87.00
33328;DHT22;19692;52.998;9.116;2022-09-02T11:18:23;25.90;86.20
33328;DHT22;19692;52.998;9.116;2022-09-02T11:21:03;25.60;87.60
33328;DHT22;19692;52.998;9.116;2022-09-02T11:23:56;25.60;87.30
33328;DHT22;19692;52.998;9.116;2022-09-02T11:26:57;25.50;87.60
33328;DHT22;19692;52.998;9.116;2022-09-02T11:29:59;25.50;86.60
33328;DHT22;19692;52.998;9.116;2022-09-02T11:32:36;25.90;85.60
33328;DHT22;19692;52.998;9.116;2022-09-02T11:35:10;25.80;85.10
33328;DHT22;19692;52.998;9.116;2022-09-02T11:37:45;25.40;85.60
33328;DHT22;19692;52.998;9.116;2022-09-02T11:46:18;24.80;88.40
33328;DHT22;19692;52.998;9.116;2022-09-02T11:54:45;25.90;85.60
33328;DHT22;19692;52.998;9.116;2022-09-02T11:57:21;26.20;83.10
33328;DHT22;19692;52.998;9.116;2022-09-02T12:02:43;26.60;82.10
33328;DHT22;19692;52.998;9.116;2022-09-02T12:07:57;27.60;76.60
33328;DHT22;19692;52.998;9.116;2022-09-02T12:13:11;28.10;76.30
33328;DHT22;19692;52.998;9.116;2022-09-02T12:21:27;27.90;77.10
33328;DHT22;19692;52.998;9.116;2022-09-02T12:31:48;28.30;75.20
33328;DHT22;19692;52.998;9.116;2022-09-02T12:44:46;27.80;70.00
33328;DHT22;19692;52.998;9.116;2022-09-02T12:47:45;28.10;71.00
33328;DHT22;19692;52.998;9.116;2022-09-02T12:50:49;28.30;68.70
33328;DHT22;19692;52.998;9.116;2022-09-02T12:53:51;28.60;66.40
33328;DHT22;19692;52.998;9.116;2022-09-02T12:56:23;28.90;70.30
33328;DHT22;19692;52.998;9.116;2022-09-02T12:58:56;29.10;68.80
33328;DHT22;19692;52.998;9.116;2022-09-02T13:07:41;28.50;66.20
33328;DHT22;19692;52.998;9.116;2022-09-02T13:16:06;26.50;71.80
33328;DHT22;19692;52.998;9.116;2022-09-02T13:22:15;26.60;70.10
33328;DHT22;19692;52.998;9.116;2022-09-02T13:31:19;26.80;72.00
33328;DHT22;19692;52.998;9.116;2022-09-02T13:33:56;26.40;72.60
33328;DHT22;19692;52.998;9.116;2022-09-02T13:36:28;26.30;73.90
33328;DHT22;19692;52.998;9.116;2022-09-02T13:39:09;26.60;74.60
33328;DHT22;19692;52.998;9.116;2022-09-02T13:41:45;27.30;70.90
33328;DHT22;19692;52.998;9.116;2022-09-02T13:44:31;27.40;71.10
33328;DHT22;19692;52.998;9.116;2022-09-02T13:47:12;27.60;70.20
33328;DHT22;19692;52.998;9.116;2022-09-02T13:49:41;28.10;70.50
33328;DHT22;19692;52.998;9.116;2022-09-02T13:52:18;28.10;68.30
33328;DHT22;19692;52.998;9.116;2022-09-02T13:54:48;27.60;68.80
33328;DHT22;19692;52.998;9.116;2022-09-02T13:57:21;27.20;70.50
33328;DHT22;19692;52.998;9.116;2022-09-02T13:59:51;26.80;70.90
33328;DHT22;19692;52.998;9.116;2022-09-02T14:05:12;26.50;72.70
33328;DHT22;19692;52.998;9.116;2022-09-02T14:07:43;26.40;71.90
33328;DHT22;19692;52.998;9.116;2022-09-02T14:10:15;26.20;71.50
33328;DHT22;19692;52.998;9.116;2022-09-02T14:12:42;26.00;72.70
33328;DHT22;19692;52.998;9.116;2022-09-02T14:15:13;25.80;72.70
33328;DHT22;19692;52.998;9.116;2022-09-02T14:17:40;26.10;72.60
33328;DHT22;19692;52.998;9.116;2022-09-02T14:20:20;26.60;71.20
33328;DHT22;19692;52.998;9.116;2022-09-02T14:22:55;27.10;70.40
33328;DHT22;19692;52.998;9.116;2022-09-02T14:25:28;27.00;69.00
33328;DHT22;19692;52.998;9.116;2022-09-02T14:27:59;26.90;69.80
33328;DHT22;19692;52.998;9.116;2022-09-02T14:30:32;27.00;70.10
33328;DHT22;19692;52.998;9.116;2022-09-02T14:36:12;27.60;68.80
33328;DHT22;19692;52.998;9.116;2022-09-02T14:39:15;27.70;68.80
33328;DHT22;19692;52.998;9.116;2022-09-02T14:41:50;27.50;69.50
33328;DHT22;19692;52.998;9.116;2022-09-02T14:44:31;27.70;69.00
33328;DHT22;19692;52.998;9.116;2022-09-02T14:47:12;27.60;68.70
33328;DHT22;19692;52.998;9.116;2022-09-02T14:49:48;27.50;68.20
33328;DHT22;19692;52.998;9.116;2022-09-02T14:52:24;27.20;68.40
33328;DHT22;19692;52.998;9.116;2022-09-02T14:54:54;26.50;69.10
33328;DHT22;19692;52.998;9.116;2022-09-02T14:57:22;26.00;71.40
33328;DHT22;19692;52.998;9.116;2022-09-02T14:59:53;26.10;70.70
33328;DHT22;19692;52.998;9.116;2022-09-02T15:02:28;26.20;70.00
33328;DHT22;19692;52.998;9.116;2022-09-02T15:04:58;26.40;70.20
33328;DHT22;19692;52.998;9.116;2022-09-02T15:07:25;26.60;69.20
33328;DHT22;19692;52.998;9.116;2022-09-02T15:09:51;26.80;68.60
33328;DHT22;19692;52.998;9.116;2022-09-02T15:12:22;27.10;68.60
33328;DHT22;19692;52.998;9.116;2022-09-02T15:14:50;27.30;67.80
33328;DHT22;19692;52.998;9.116;2022-09-02T15:17:17;27.40;67.30
33328;DHT22;19692;52.998;9.116;2022-09-02T15:19:43;27.40;67.00
33328;DHT22;19692;52.998;9.116;2022-09-02T15:22:09;27.20;67.20
33328;DHT22;19692;52.998;9.116;2022-09-02T15:24:35;26.90;67.30
33328;DHT22;19692;52.998;9.116;2022-09-02T15:27:01;26.70;67.90
33328;DHT22;19692;52.998;9.116;2022-09-02T15:29:27;26.60;67.10
33328;DHT22;19692;52.998;9.116;2022-09-02T15:31:53;26.30;67.60
33328;DHT22;19692;52.998;9.116;2022-09-02T15:34:22;26.30;69.10
33328;DHT22;19692;52.998;9.116;2022-09-02T15:36:48;26.50;67.30
33328;DHT22;19692;52.998;9.116;2022-09-02T15:39:15;26.60;67.70
33328;DHT22;19692;52.998;9.116;2022-09-02T15:41:44;26.90;66.70
33328;DHT22;19692;52.998;9.116;2022-09-02T15:44:10;26.80;65.90
33328;DHT22;19692;52.998;9.116;2022-09-02T15:46:36;27.00;66.70
33328;DHT22;19692;52.998;9.116;2022-09-02T15:49:05;27.10;65.90
33328;DHT22;19692;52.998;9.116;2022-09-02T15:51:34;27.00;66.20
33328;DHT22;19692;52.998;9.116;2022-09-02T15:54:02;27.00;66.90
33328;DHT22;19692;52.998;9.116;2022-09-02T15:56:35;26.80;66.50
33328;DHT22;19692;52.998;9.116;2022-09-02T15:59:13;26.80;66.90
33328;DHT22;19692;52.998;9.116;2022-09-02T16:01:45;26.70;67.60
33328;DHT22;19692;52.998;9.116;2022-09-02T16:04:13;26.60;67.10
33328;DHT22;19692;52.998;9.116;2022-09-02T16:06:41;26.50;68.20
33328;DHT22;19692;52.998;9.116;2022-09-02T16:09:11;26.40;68.50
33328;DHT22;19692;52.998;9.116;2022-09-02T16:11:39;26.20;68.60
33328;DHT22;19692;52.998;9.116;2022-09-02T16:14:06;25.70;69.70
33328;DHT22;19692;52.998;9.116;2022-09-02T16:16:33;25.30;70.20
33328;DHT22;19692;52.998;9.116;2022-09-02T16:19:00;25.00;71.10
33328;DHT22;19692;52.998;9.116;2022-09-02T16:21:27;24.90;71.30
33328;DHT22;19692;52.998;9.116;2022-09-02T16:23:53;24.90;71.80
33328;DHT22;19692;52.998;9.116;2022-09-02T16:26:24;25.20;71.50
33328;DHT22;19692;52.998;9.116;2022-09-02T16:28:59;25.30;70.60
33328;DHT22;19692;52.998;9.116;2022-09-02T16:31:27;25.40;70.80
33328;DHT22;19692;52.998;9.116;2022-09-02T16:34:01;25.20;70.70
33328;DHT22;19692;52.998;9.116;2022-09-02T16:36:30;25.30;72.10
33328;DHT22;19692;52.998;9.116;2022-09-02T16:38:57;25.30;71.40
33328;DHT22;19692;52.998;9.116;2022-09-02T16:41:30;25.40;71.20
33328;DHT22;19692;52.998;9.116;2022-09-02T16:44:00;25.30;71.50
33328;DHT22;19692;52.998;9.116;2022-09-02T16:46:30;25.30;70.90
33328;DHT22;19692;52.998;9.116;2022-09-02T16:48:56;25.00;71.30
33328;DHT22;19692;52.998;9.116;2022-09-02T16:51:23;25.00;72.00
33328;DHT22;19692;52.998;9.116;2022-09-02T16:53:54;25.00;71.90
33328;DHT22;19692;52.998;9.116;2022-09-02T16:56:20;25.00;71.20
33328;DHT22;19692;52.998;9.116;2022-09-02T16:58:48;25.00;71.30
33328;DHT22;19692;52.998;9.116;2022-09-02T17:01:14;25.10;71.50
33328;DHT22;19692;52.998;9.116;2022-09-02T17:03:40;25.10;71.10
33328;DHT22;19692;52.998;9.116;2022-09-02T17:06:07;24.80;72.50
33328;DHT22;19692;52.998;9.116;2022-09-02T17:08:33;24.80;72.00
33328;DHT22;19692;52.998;9.116;2022-09-02T17:14:07;24.20;72.50
33328;DHT22;19692;52.998;9.116;2022-09-02T17:16:47;23.90;73.30
33328;DHT22;19692;52.998;9.116;2022-09-02T17:19:15;23.90;73.90
33328;DHT22;19692;52.998;9.116;2022-09-02T17:21:46;23.70;74.30
33328;DHT22;19692;52.998;9.116;2022-09-02T17:24:21;23.40;74.80
33328;DHT22;19692;52.998;9.116;2022-09-02T17:26:50;23.40;75.00
33328;DHT22;19692;52.998;9.116;2022-09-02T17:29:20;23.40;75.40
33328;DHT22;19692;52.998;9.116;2022-09-02T17:31:47;23.30;75.60
33328;DHT22;19692;52.998;9.116;2022-09-02T17:34:13;23.20;75.80
33328;DHT22;19692;52.998;9.116;2022-09-02T17:36:41;23.10;75.90
33328;DHT22;19692;52.998;9.116;2022-09-02T17:39:10;22.90;76.30
33328;DHT22;19692;52.998;9.116;2022-09-02T17:41:37;22.90;76.40
33328;DHT22;19692;52.998;9.116;2022-09-02T17:44:19;22.80;76.40
33328;DHT22;19692;52.998;9.116;2022-09-02T17:46:47;22.60;77.10
33328;DHT22;19692;52.998;9.116;2022-09-02T17:49:13;22.60;77.20
33328;DHT22;19692;52.998;9.116;2022-09-02T17:51:39;22.50;77.50
33328;DHT22;19692;52.998;9.116;2022-09-02T17:54:06;22.30;77.90
33328;DHT22;19692;52.998;9.116;2022-09-02T17:59:32;22.10;78.40